Time;durP1;ratioP1;P1;durP2;ratioP2;P2;SDS_P1;SDS_P2;PMS_P1;PMS_P2;Temp;Humidity;BMP_temperature;BMP_pressure;BME280_temperature;BME280_humidity;BME280_pressure;Samples;Min_cycle;Max_cycle;Signal;HPM_P1;HPM_P2
2022/01/30 00:01:32;;;;;;;8.55;0.60;;;;;;;10.41;62.27;102844.38;7389372;19;20023;-66
2022/01/30 00:03:59;;;;;;;9.75;0.73;;;;;;;10.42;62.88;102838.16;7392543;19;20499;-67
2022/01/30 00:06:26;;;;;;;6.38;0.68;;;;;;;10.41;62.42;102835.66;7394744;19;20022;-66
2022/01/30 00:08:53;;;;;;;10.55;1.08;;;;;;;10.37;61.43;102840.25;7390000;19;20019;-66
2022/01/30 00:11:24;;;;;;;6.40;0.50;;;;;;;10.34;62.18;102840.47;7393516;19;20044;-66
2022/01/30 00:13:51;;;;;;;7.10;0.60;;;;;;;10.34;62.06;102829.09;7392141;19;20021;-68
2022/01/30 00:16:21;;;;;;;6.78;0.82;;;;;;;10.30;62.19;102831.09;7392902;19;20295;-66
2022/01/30 00:26:34;;;;;;;9.02;0.80;;;;;;;10.31;63.15;102845.09;7389185;19;20022;-66
2022/01/30 00:29:02;;;;;;;8.07;1.75;;;;;;;10.34;64.94;102834.34;7392062;19;20010;-66
2022/01/30 00:31:31;;;;;;;8.95;0.75;;;;;;;10.33;63.93;102838.78;7389433;19;20087;-67
2022/01/30 00:34:18;;;;;;;7.88;1.08;;;;;;;10.32;65.84;102837.06;7392140;19;20010;-65
2022/01/30 00:36:46;;;;;;;5.68;0.70;;;;;;;10.29;63.06;102846.03;7390967;19;20077;-67
2022/01/30 00:39:13;;;;;;;6.85;0.90;;;;;;;10.31;64.23;102840.66;7388908;19;20073;-66
2022/01/30 00:41:40;;;;;;;12.73;2.28;;;;;;;10.33;64.66;102840.56;7388886;19;20053;-67
2022/01/30 00:44:07;;;;;;;5.53;0.85;;;;;;;10.27;64.02;102834.75;7392616;19;20019;-66
2022/01/30 00:46:34;;;;;;;9.77;0.80;;;;;;;10.23;63.68;102835.91;7391247;19;20494;-67
2022/01/30 00:49:02;;;;;;;12.75;1.30;;;;;;;10.18;63.54;102824.00;7388047;19;20038;-66
2022/01/30 00:51:29;;;;;;;11.35;0.98;;;;;;;10.13;63.89;102823.41;7391725;19;20010;-66
2022/01/30 00:53:56;;;;;;;15.30;1.67;;;;;;;10.09;64.03;102832.47;7387864;19;20027;-66
2022/01/30 00:56:23;;;;;;;7.05;1.52;;;;;;;10.06;64.92;102833.50;7388438;19;20330;-67
2022/01/30 00:58:51;;;;;;;9.25;1.27;;;;;;;10.05;64.54;102846.75;7387671;19;20022;-68
2022/01/30 01:01:18;;;;;;;10.32;1.65;;;;;;;10.02;65.03;102854.81;7387080;19;20006;-66
2022/01/30 01:03:45;;;;;;;7.72;1.00;;;;;;;9.98;66.06;102850.72;7390440;19;20014;-67
2022/01/30 01:06:12;;;;;;;8.82;0.93;;;;;;;9.94;65.07;102838.72;7388145;19;20011;-67
2022/01/30 01:24:07;;;;;;;12.35;1.10;;;;;;;9.76;65.47;102833.69;7387838;19;20014;-67
2022/01/30 01:26:37;;;;;;;8.80;1.38;;;;;;;9.73;66.01;102836.50;7388704;19;20010;-66
2022/01/30 01:29:05;;;;;;;11.95;1.00;;;;;;;9.70;66.27;102844.56;7387424;19;20010;-67
2022/01/30 01:31:33;;;;;;;11.07;0.93;;;;;;;9.67;65.43;102846.56;7391536;19;20090;-66
2022/01/30 01:36:37;;;;;;;16.85;2.55;;;;;;;9.62;66.51;102843.38;7389491;19;20032;-67
2022/01/30 01:39:05;;;;;;;27.40;8.68;;;;;;;9.61;67.36;102836.44;7385184;19;20010;-67
2022/01/30 01:41:36;;;;;;;17.90;3.15;;;;;;;9.60;68.09;102846.09;7391073;19;20015;-65
2022/01/30 01:44:15;;;;;;;19.20;4.85;;;;;;;9.57;67.94;102858.59;7390141;19;20267;-66
2022/01/30 01:46:43;;;;;;;14.32;2.17;;;;;;;9.50;66.73;102857.31;7388301;19;20016;-66
2022/01/30 01:49:18;;;;;;;13.65;1.45;;;;;;;9.46;66.97;102848.75;7389204;19;20489;-65
2022/01/30 01:51:50;;;;;;;11.10;1.70;;;;;;;9.43;66.84;102839.28;7391374;19;20137;-67
2022/01/30 01:54:17;;;;;;;13.38;1.50;;;;;;;9.41;66.86;102841.16;7391012;19;20022;-66
2022/01/30 01:56:44;;;;;;;6.85;0.75;;;;;;;9.42;66.60;102842.00;7387560;19;20006;-66
2022/01/30 01:59:12;;;;;;;9.00;1.10;;;;;;;9.38;66.48;102837.88;7392492;19;20116;-66
2022/01/30 02:01:39;;;;;;;7.38;1.27;;;;;;;9.38;66.78;102843.13;7390451;19;20035;-67
2022/01/30 02:04:06;;;;;;;10.38;0.82;;;;;;;9.38;67.11;102849.25;7386263;19;20015;-67
2022/01/30 02:06:33;;;;;;;8.93;1.10;;;;;;;9.36;66.50;102851.09;7390683;19;20342;-67
2022/01/30 02:09:08;;;;;;;8.85;0.88;;;;;;;9.35;66.50;102854.66;7388442;19;20022;-66
2022/01/30 02:11:42;;;;;;;8.63;0.70;;;;;;;9.30;66.88;102848.84;7391869;19;20003;-67
2022/01/30 02:27:36;;;;;;;7.55;0.93;;;;;;;9.12;67.69;102860.50;7393050;19;20041;-66
2022/01/30 02:30:15;;;;;;;9.38;1.45;;;;;;;9.13;67.77;102874.47;7394985;19;20421;-66
2022/01/30 02:32:44;;;;;;;8.75;1.17;;;;;;;9.13;68.32;102875.31;7393934;19;20014;-66
2022/01/30 02:35:11;;;;;;;7.00;0.90;;;;;;;9.12;67.93;102872.78;7393492;19;20025;-66
2022/01/30 02:37:38;;;;;;;7.72;1.23;;;;;;;9.14;68.95;102873.53;7391893;19;20026;-66
2022/01/30 02:40:11;;;;;;;12.38;1.30;;;;;;;9.10;67.86;102872.00;7392441;19;20467;-66
2022/01/30 02:42:43;;;;;;;8.95;0.95;;;;;;;9.05;67.55;102869.66;7395022;19;20017;-66
2022/01/30 02:45:13;;;;;;;9.70;1.08;;;;;;;8.98;67.83;102858.72;7393721;19;20011;-68
2022/01/30 02:47:53;;;;;;;11.65;0.75;;;;;;;8.89;68.32;102869.72;7395474;19;20372;-66
2022/01/30 02:50:34;;;;;;;16.02;2.35;;;;;;;8.85;68.42;102865.59;7395105;19;20034;-65
2022/01/30 02:53:05;;;;;;;8.38;0.80;;;;;;;8.82;68.57;102876.31;7391839;19;20343;-66
2022/01/30 02:55:32;;;;;;;11.88;0.73;;;;;;;8.78;68.68;102877.41;7392691;19;20013;-66
2022/01/30 02:57:59;;;;;;;10.30;1.17;;;;;;;8.78;69.23;102880.03;7392132;19;20018;-66
2022/01/30 03:00:26;;;;;;;9.90;1.10;;;;;;;8.77;69.52;102880.97;7395684;19;20014;-69
2022/01/30 03:02:53;;;;;;;8.15;0.75;;;;;;;8.76;69.08;102878.44;7396995;19;20015;-66
2022/01/30 03:05:21;;;;;;;6.45;1.00;;;;;;;8.76;69.28;102879.28;7392470;19;20006;-66
2022/01/30 03:07:48;;;;;;;14.27;0.73;;;;;;;8.79;69.29;102876.47;7395061;19;20014;-68
2022/01/30 03:10:16;;;;;;;16.88;1.30;;;;;;;8.81;69.53;102885.09;7396692;19;20006;-67
2022/01/30 03:12:43;;;;;;;15.15;1.15;;;;;;;8.80;69.83;102872.06;7392321;19;20034;-66
2022/01/30 03:15:11;;;;;;;8.57;0.82;;;;;;;8.77;69.52;102874.88;7393922;19;20015;-68
2022/01/30 03:17:40;;;;;;;9.82;1.30;;;;;;;8.72;69.41;102875.16;7394196;19;20018;-65
2022/01/30 03:20:09;;;;;;;9.90;1.33;;;;;;;8.72;69.45;102872.53;7396460;19;20035;-68
2022/01/30 03:22:36;;;;;;;7.18;1.20;;;;;;;8.73;70.50;102870.75;7392415;19;20007;-66
2022/01/30 03:25:04;;;;;;;5.30;1.08;;;;;;;8.73;70.20;102874.22;7392019;19;20015;-66
2022/01/30 03:27:32;;;;;;;7.03;0.93;;;;;;;8.73;69.94;102882.09;7396947;19;20018;-67
2022/01/30 03:30:04;;;;;;;10.32;1.63;;;;;;;8.72;69.75;102877.78;7394436;19;20336;-66
2022/01/30 03:32:31;;;;;;;6.70;0.80;;;;;;;8.72;69.56;102885.66;7396286;19;20035;-66
2022/01/30 03:34:59;;;;;;;10.85;1.15;;;;;;;8.68;69.60;102886.78;7391736;19;20106;-65
2022/01/30 03:37:26;;;;;;;8.63;0.75;;;;;;;8.66;70.11;102874.66;7390328;19;20006;-66
2022/01/30 03:39:53;;;;;;;9.48;1.00;;;;;;;8.63;70.02;102877.47;7392022;19;20030;-66
2022/01/30 03:42:21;;;;;;;11.68;0.88;;;;;;;8.58;70.16;102872.50;7392999;19;20647;-66
2022/01/30 03:44:48;;;;;;;11.52;1.00;;;;;;;8.58;70.61;102875.13;7390935;19;20383;-65
2022/01/30 03:47:15;;;;;;;4.65;1.13;;;;;;;8.58;70.73;102875.94;7390694;19;20406;-65
2022/01/30 03:49:42;;;;;;;9.80;0.80;;;;;;;8.62;71.11;102878.41;7393935;19;20021;-65
2022/01/30 03:52:09;;;;;;;10.88;0.70;;;;;;;8.59;70.58;102876.78;7390488;19;20014;-66
2022/01/30 03:54:36;;;;;;;8.68;0.85;;;;;;;8.59;70.55;102876.78;7392747;19;20050;-67
2022/01/30 03:57:05;;;;;;;11.93;0.77;;;;;;;8.57;70.37;102881.28;7394525;19;20042;-66
2022/01/30 03:59:32;;;;;;;11.57;1.08;;;;;;;8.50;70.27;102875.53;7391766;19;20015;-66
2022/01/30 04:01:59;;;;;;;9.13;0.93;;;;;;;8.48;70.66;102880.03;7391357;19;20011;-65
2022/01/30 04:04:26;;;;;;;10.73;0.70;;;;;;;8.44;70.85;102877.66;7393212;19;20018;-66
2022/01/30 04:06:56;;;;;;;8.93;1.13;;;;;;;8.42;70.85;102880.41;7389716;19;20022;-66
2022/01/30 04:09:25;;;;;;;10.07;0.70;;;;;;;8.39;70.84;102870.06;7392909;19;20576;-66
2022/01/30 04:11:52;;;;;;;10.45;1.17;;;;;;;8.36;71.06;102879.91;7395001;19;20013;-66
2022/01/30 04:14:19;;;;;;;8.88;0.77;;;;;;;8.32;71.01;102883.63;7394806;19;20365;-67
2022/01/30 04:16:46;;;;;;;7.28;0.95;;;;;;;8.26;70.57;102889.19;7393815;19;20022;-68
2022/01/30 04:19:13;;;;;;;10.18;1.00;;;;;;;8.23;70.90;102886.75;7396387;19;20006;-68
2022/01/30 04:21:41;;;;;;;8.68;0.90;;;;;;;8.18;71.04;102882.59;7391242;19;20045;-66
2022/01/30 04:24:07;;;;;;;13.10;1.20;;;;;;;8.18;71.59;102884.34;7392700;19;20010;-66
2022/01/30 04:26:36;;;;;;;9.43;1.05;;;;;;;8.16;71.39;102887.09;7389928;19;20006;-67
2022/01/30 04:29:04;;;;;;;8.80;0.70;;;;;;;8.18;72.29;102884.34;7390495;19;20042;-67
2022/01/30 04:31:31;;;;;;;13.57;1.60;;;;;;;8.21;71.61;102896.47;7392551;19;20026;-66
2022/01/30 04:33:59;;;;;;;9.35;1.15;;;;;;;8.19;71.54;102893.94;7392334;19;20076;-66
2022/01/30 04:36:31;;;;;;;8.77;0.88;;;;;;;8.21;71.69;102899.09;7390202;19;20007;-67
2022/01/30 04:39:09;;;;;;;15.43;1.10;;;;;;;8.21;71.38;102899.09;7387942;19;20015;-67
2022/01/30 04:52:17;;;;;;;7.35;1.00;;;;;;;8.02;71.85;102894.88;7389798;19;20024;-66
2022/01/30 05:05:08;;;;;;;10.77;0.88;;;;;;;7.88;72.54;102886.91;7392972;19;20039;-67
2022/01/30 05:07:38;;;;;;;12.05;1.45;;;;;;;7.84;72.13;102874.91;7393921;19;20085;-65
2022/01/30 05:10:07;;;;;;;9.07;1.45;;;;;;;7.80;72.54;102877.78;7391502;19;20499;-66
2022/01/30 05:12:43;;;;;;;9.40;1.15;;;;;;;7.76;72.75;102876.28;7388526;19;20010;-67
2022/01/30 05:15:11;;;;;;;9.10;1.90;;;;;;;7.75;73.47;102878.03;7388618;19;20011;-67
2022/01/30 05:17:38;;;;;;;9.00;1.10;;;;;;;7.74;73.38;102886.81;7388435;19;20014;-67
2022/01/30 05:20:06;;;;;;;7.38;1.00;;;;;;;7.73;73.23;102872.88;7393335;19;20007;-66
2022/01/30 05:22:34;;;;;;;14.48;1.42;;;;;;;7.74;73.33;102882.44;7387336;19;20376;-66
2022/01/30 05:25:01;;;;;;;8.02;0.93;;;;;;;7.72;72.93;102878.19;7392934;19;20038;-66
2022/01/30 05:27:29;;;;;;;14.18;0.98;;;;;;;7.68;73.13;102869.66;7388334;19;20011;-67
2022/01/30 05:29:56;;;;;;;8.30;0.70;;;;;;;7.66;73.27;102876.78;7388733;19;20022;-66
2022/01/30 05:32:24;;;;;;;6.88;0.80;;;;;;;7.63;73.32;102879.53;7388145;19;20018;-66
2022/01/30 05:34:51;;;;;;;9.82;0.90;;;;;;;7.63;73.61;102883.94;7386414;19;20483;-66
2022/01/30 05:37:19;;;;;;;7.22;0.90;;;;;;;7.61;73.57;102881.41;7390528;19;20017;-66
2022/01/30 05:39:46;;;;;;;7.38;0.95;;;;;;;7.63;73.68;102878.69;7390891;19;20010;-66
2022/01/30 05:42:14;;;;;;;10.00;1.50;;;;;;;7.63;73.63;102876.06;7389772;19;20452;-67
2022/01/30 05:47:22;;;;;;;14.68;0.70;;;;;;;7.59;73.57;102883.25;7387854;19;20352;-65
2022/01/30 05:49:49;;;;;;;9.30;1.23;;;;;;;7.61;73.67;102885.81;7395610;19;20006;-68
2022/01/30 05:52:17;;;;;;;6.40;0.60;;;;;;;7.62;73.81;102893.56;7396590;19;20090;-66
2022/01/30 05:54:43;;;;;;;9.27;0.70;;;;;;;7.60;73.71;102891.97;7395952;19;20022;-66
2022/01/30 05:57:10;;;;;;;7.03;0.88;;;;;;;7.59;73.85;102890.28;7395342;19;20034;-66
2022/01/30 05:59:37;;;;;;;9.50;1.48;;;;;;;7.55;73.74;102894.84;7399174;19;20019;-68
2022/01/30 06:02:04;;;;;;;7.47;0.63;;;;;;;7.55;73.96;102894.84;7394389;19;20014;-67
2022/01/30 06:04:31;;;;;;;9.27;1.42;;;;;;;7.54;74.79;102890.53;7398304;19;20010;-67
2022/01/30 06:07:00;;;;;;;6.20;0.90;;;;;;;7.58;74.62;102899.06;7392777;19;20036;-66
2022/01/30 06:09:27;;;;;;;15.32;1.27;;;;;;;7.58;74.31;102897.28;7395247;19;20038;-66
2022/01/30 06:11:54;;;;;;;12.45;1.17;;;;;;;7.58;74.10;102893.81;7397614;19;20019;-66
2022/01/30 06:14:22;;;;;;;10.68;0.73;;;;;;;7.53;73.87;102901.91;7394024;19;20010;-67
2022/01/30 06:16:49;;;;;;;6.10;1.27;;;;;;;7.52;74.40;102908.09;7394273;19;20018;-66
2022/01/30 06:19:18;;;;;;;10.27;0.88;;;;;;;7.52;74.47;102912.47;7395577;19;20047;-68
2022/01/30 06:21:46;;;;;;;8.30;1.13;;;;;;;7.48;74.35;102909.19;7393579;19;20021;-68
2022/01/30 06:24:13;;;;;;;8.70;0.95;;;;;;;7.45;74.10;102905.88;7393691;19;20651;-69
2022/01/30 06:26:40;;;;;;;7.15;1.40;;;;;;;7.43;74.55;102902.50;7394912;19;20019;-66
2022/01/30 06:29:07;;;;;;;7.13;1.08;;;;;;;7.43;74.81;102902.50;7393593;19;20003;-67
2022/01/30 06:31:34;;;;;;;10.73;1.15;;;;;;;7.42;74.64;102900.78;7398064;19;20011;-67
2022/01/30 06:34:01;;;;;;;7.25;0.90;;;;;;;7.42;75.02;102919.13;7394070;19;20011;-67
2022/01/30 06:36:28;;;;;;;12.25;2.05;;;;;;;7.44;75.54;102912.03;7395687;19;20010;-66
2022/01/30 06:38:54;;;;;;;10.10;1.02;;;;;;;7.44;74.53;102915.50;7390791;19;20026;-66
2022/01/30 06:41:21;;;;;;;8.63;1.45;;;;;;;7.44;74.77;102902.41;7396067;19;20014;-66
2022/01/30 06:43:48;;;;;;;10.80;0.90;;;;;;;7.46;75.10;102902.34;7397670;19;20007;-67
2022/01/30 06:46:16;;;;;;;12.10;0.85;;;;;;;7.47;75.12;102906.63;7395516;19;20101;-67
2022/01/30 06:48:43;;;;;;;7.03;0.85;;;;;;;7.47;74.74;102914.50;7396303;19;20011;-67
2022/01/30 06:51:10;;;;;;;9.35;0.80;;;;;;;7.45;74.71;102911.13;7394420;19;20017;-67
2022/01/30 06:53:37;;;;;;;8.13;0.95;;;;;;;7.42;74.87;102919.13;7394429;19;20018;-67
2022/01/30 06:56:06;;;;;;;12.85;1.35;;;;;;;7.38;75.29;102915.81;7393013;19;20014;-67
2022/01/30 06:58:33;;;;;;;8.20;1.08;;;;;;;7.39;75.31;102919.28;7391053;19;20015;-67
2022/01/30 07:01:00;;;;;;;11.70;1.67;;;;;;;7.39;75.54;102921.91;7391777;19;20010;-67
2022/01/30 07:03:31;;;;;;;8.18;0.80;;;;;;;7.42;75.83;102932.22;7393201;19;20006;-66
2022/01/30 07:05:58;;;;;;;9.50;1.00;;;;;;;7.41;75.82;102926.16;7394119;19;20007;-66
2022/01/30 07:08:25;;;;;;;7.72;1.27;;;;;;;7.43;75.39;102933.91;7393181;19;20006;-67
2022/01/30 07:10:52;;;;;;;6.30;1.30;;;;;;;7.43;75.16;102937.38;7396042;19;20007;-65
2022/01/30 07:13:19;;;;;;;6.95;1.10;;;;;;;7.44;75.80;102935.59;7394159;19;20082;-68
2022/01/30 07:15:46;;;;;;;10.85;0.90;;;;;;;7.45;76.19;102950.41;7391944;19;20021;-68
2022/01/30 07:18:13;;;;;;;13.15;1.25;;;;;;;7.43;75.12;102945.25;7392773;19;20027;-66
2022/01/30 07:20:40;;;;;;;8.93;1.00;;;;;;;7.41;74.96;102947.09;7394728;19;20074;-67
2022/01/30 07:23:07;;;;;;;10.30;1.20;;;;;;;7.38;75.70;102939.38;7392914;19;20452;-66
2022/01/30 07:25:34;;;;;;;10.65;1.15;;;;;;;7.39;75.69;102940.25;7392760;19;20030;-66
2022/01/30 07:28:02;;;;;;;13.25;1.05;;;;;;;7.35;75.24;102942.19;7393121;19;20017;-66
2022/01/30 07:30:29;;;;;;;15.13;0.95;;;;;;;7.35;75.31;102946.56;7393436;19;20017;-65
2022/01/30 07:32:56;;;;;;;9.35;1.08;;;;;;;7.33;75.52;102951.88;7391877;19;20077;-66
2022/01/30 07:35:23;;;;;;;7.97;1.05;;;;;;;7.28;75.84;102946.88;7387789;19;20026;-65
2022/01/30 07:37:51;;;;;;;10.55;0.90;;;;;;;7.28;75.79;102959.13;7390677;19;20357;-66
2022/01/30 07:40:19;;;;;;;11.23;1.25;;;;;;;7.26;75.65;102951.34;7393744;19;20018;-65
2022/01/30 07:42:46;;;;;;;11.00;1.48;;;;;;;7.25;75.65;102951.44;7392463;19;20007;-68
2022/01/30 07:45:13;;;;;;;9.02;0.88;;;;;;;7.21;75.82;102955.97;7391674;19;20002;-67
2022/01/30 07:47:40;;;;;;;10.95;1.10;;;;;;;7.18;75.74;102966.59;7390418;19;20011;-67
2022/01/30 07:50:08;;;;;;;9.20;1.05;;;;;;;7.18;76.42;102963.97;7391731;19;20062;-66
2022/01/30 07:52:36;;;;;;;7.68;0.98;;;;;;;7.15;75.99;102961.53;7393716;19;20014;-67
2022/01/30 07:55:03;;;;;;;6.68;1.15;;;;;;;7.13;76.70;102965.97;7390132;19;20007;-66
2022/01/30 07:57:31;;;;;;;9.73;0.90;;;;;;;7.11;76.62;102970.44;7391827;19;20011;-67
2022/01/30 07:59:58;;;;;;;8.90;1.00;;;;;;;7.07;76.76;102971.53;7395418;19;20090;-66
2022/01/30 08:02:25;;;;;;;12.98;1.08;;;;;;;7.02;76.60;102970.91;7390406;19;20018;-67
2022/01/30 08:04:54;;;;;;;9.00;1.17;;;;;;;7.01;76.75;102969.22;7394122;19;20014;-67
2022/01/30 08:07:22;;;;;;;13.07;1.17;;;;;;;7.02;76.07;102972.69;7392071;19;20355;-67
2022/01/30 08:09:49;;;;;;;10.38;1.67;;;;;;;7.00;76.63;102971.91;7391516;19;20098;-67
2022/01/30 08:12:19;;;;;;;8.45;0.90;;;;;;;6.99;78.15;102975.47;7393445;19;20014;-66
2022/01/30 08:14:46;;;;;;;5.55;1.00;;;;;;;7.00;78.05;102972.78;7388571;19;20040;-67
2022/01/30 08:17:20;;;;;;;9.57;1.90;;;;;;;7.02;78.19;102970.06;7391499;19;20011;-67
2022/01/30 08:19:53;;;;;;;9.63;1.30;;;;;;;7.03;79.78;102971.75;7389113;19;20038;-68
2022/01/30 08:22:20;;;;;;;8.25;1.27;;;;;;;7.01;77.73;102979.66;7389072;19;20073;-66
2022/01/30 08:24:47;;;;;;;9.43;2.30;;;;;;;6.97;77.77;102983.38;7389857;19;20021;-67
2022/01/30 08:27:14;;;;;;;9.35;1.20;;;;;;;6.98;77.82;102987.69;7391677;19;20086;-66
2022/01/30 08:29:44;;;;;;;8.85;1.35;;;;;;;6.97;77.77;102991.22;7391620;19;20082;-66
2022/01/30 08:32:11;;;;;;;7.20;1.30;;;;;;;6.99;76.99;103004.25;7388721;19;20017;-67
2022/01/30 08:34:40;;;;;;;11.40;1.25;;;;;;;7.03;77.07;102993.53;7388729;19;20007;-67
2022/01/30 08:37:07;;;;;;;16.15;5.82;;;;;;;7.09;77.91;102993.25;7388729;19;20106;-67
2022/01/30 08:39:35;;;;;;;7.38;1.20;;;;;;;7.09;78.20;102993.25;7390109;19;20014;-67
2022/01/30 08:42:05;;;;;;;9.05;1.60;;;;;;;7.07;77.67;102992.47;7388819;19;20146;-65
2022/01/30 08:44:32;;;;;;;13.05;1.38;;;;;;;7.06;76.95;102992.56;7390941;19;20078;-66
2022/01/30 08:47:00;;;;;;;10.85;1.30;;;;;;;7.04;76.31;102979.53;7388614;19;20031;-65
2022/01/30 08:49:27;;;;;;;15.10;1.48;;;;;;;7.05;76.31;102988.25;7393493;19;20413;-66
2022/01/30 08:51:54;;;;;;;9.60;1.08;;;;;;;7.01;76.77;102978.84;7391949;19;20019;-66
2022/01/30 08:54:22;;;;;;;10.00;1.10;;;;;;;7.01;76.15;102984.09;7390570;19;20011;-66
2022/01/30 08:56:49;;;;;;;10.30;1.20;;;;;;;6.99;75.96;102978.91;7390039;19;20034;-65
2022/01/30 08:59:16;;;;;;;10.07;2.80;;;;;;;7.02;76.46;102985.75;7388583;19;20494;-67
2022/01/30 09:01:43;;;;;;;10.07;1.33;;;;;;;7.03;76.82;102971.75;7391031;19;20867;-66
2022/01/30 09:04:11;;;;;;;12.60;1.25;;;;;;;7.00;76.53;102970.16;7389112;19;20013;-67
2022/01/30 09:06:38;;;;;;;8.80;1.33;;;;;;;7.05;76.51;102980.38;7390390;19;20010;-67
2022/01/30 09:09:05;;;;;;;12.70;1.27;;;;;;;7.06;76.54;102969.00;7388381;19;20010;-66
2022/01/30 09:11:34;;;;;;;9.43;1.20;;;;;;;7.11;78.18;102972.25;7393581;19;20042;-65
2022/01/30 09:14:01;;;;;;;8.75;1.00;;;;;;;7.14;76.90;102972.91;7390795;19;20022;-65
2022/01/30 09:16:28;;;;;;;9.48;1.45;;;;;;;7.16;76.38;102985.94;7390839;19;20014;-67
2022/01/30 09:18:56;;;;;;;11.20;1.95;;;;;;;7.18;76.20;102991.94;7387840;19;20500;-66
2022/01/30 09:21:23;;;;;;;7.65;1.50;;;;;;;7.17;75.52;102990.22;7392638;19;20021;-68
2022/01/30 09:23:51;;;;;;;6.97;2.83;;;;;;;7.17;76.27;102983.22;7394415;19;20650;-67
2022/01/30 09:26:18;;;;;;;14.40;3.30;;;;;;;7.19;76.99;102980.53;7395968;19;20007;-67
2022/01/30 09:28:46;;;;;;;20.60;7.03;;;;;;;7.21;79.02;102990.00;7397915;19;20022;-66
2022/01/30 09:31:13;;;;;;;7.97;1.33;;;;;;;7.18;78.82;102987.53;7397989;19;20018;-65
2022/01/30 09:33:40;;;;;;;9.07;2.17;;;;;;;7.17;77.46;102987.59;7396747;19;20006;-66
2022/01/30 09:36:08;;;;;;;11.88;2.78;;;;;;;7.16;76.99;102978.91;7392180;19;20021;-67
2022/01/30 09:38:35;;;;;;;9.50;0.90;;;;;;;7.20;75.95;102979.63;7396820;19;20010;-67
2022/01/30 09:41:05;;;;;;;10.80;1.42;;;;;;;7.22;75.46;102977.75;7400197;19;20431;-69
2022/01/30 09:43:33;;;;;;;8.20;1.35;;;;;;;7.30;77.61;102976.47;7396685;19;20104;-69
2022/01/30 09:46:00;;;;;;;12.43;1.67;;;;;;;7.31;75.83;102972.06;7395056;19;20019;-66
2022/01/30 09:48:28;;;;;;;17.30;4.40;;;;;;;7.34;75.79;102981.53;7397479;19;20026;-66
2022/01/30 09:50:58;;;;;;;14.70;1.75;;;;;;;7.37;74.99;102978.75;7396458;19;20010;-66
2022/01/30 09:53:25;;;;;;;11.75;1.35;;;;;;;7.38;75.16;102980.44;7398413;19;20040;-68
2022/01/30 09:55:52;;;;;;;8.35;1.23;;;;;;;7.41;74.69;102981.16;7393921;19;20090;-67
2022/01/30 09:58:19;;;;;;;7.70;1.52;;;;;;;7.45;74.94;102974.81;7394235;19;20011;-67
2022/01/30 10:00:54;;;;;;;14.50;1.42;;;;;;;7.50;74.87;102971.97;7393971;19;20010;-66
2022/01/30 10:03:23;;;;;;;8.23;1.10;;;;;;;7.54;74.49;102974.34;7395647;19;20011;-68
2022/01/30 10:06:00;;;;;;;9.85;1.10;;;;;;;7.60;74.98;102988.91;7399081;19;20014;-66
2022/01/30 10:08:29;;;;;;;15.50;2.10;;;;;;;7.61;74.54;102986.19;7395026;19;20021;-67
2022/01/30 10:11:15;;;;;;;15.15;1.27;;;;;;;7.64;73.97;102983.41;7395756;19;20014;-67
2022/01/30 10:13:45;;;;;;;9.88;1.98;;;;;;;7.65;73.86;102982.50;7397313;19;20384;-69
2022/01/30 10:16:16;;;;;;;12.98;1.58;;;;;;;7.69;74.04;102977.94;7391462;19;20561;-67
2022/01/30 10:18:44;;;;;;;14.18;2.35;;;;;;;7.67;73.65;102980.63;7398496;19;20378;-67
2022/01/30 10:21:21;;;;;;;10.93;2.47;;;;;;;7.70;73.93;102975.22;7393240;19;20798;-67
2022/01/30 10:23:48;;;;;;;16.15;1.83;;;;;;;7.74;73.70;102960.19;7392391;19;20532;-67
2022/01/30 10:26:18;;;;;;;9.38;1.30;;;;;;;7.78;73.43;102968.72;7392649;19;20022;-67
2022/01/30 10:28:45;;;;;;;6.80;1.25;;;;;;;7.83;73.35;102962.31;7392496;19;20017;-67
2022/01/30 10:31:14;;;;;;;9.13;1.92;;;;;;;7.87;73.02;102961.25;7394772;19;20033;-66
2022/01/30 10:33:46;;;;;;;9.10;1.55;;;;;;;7.91;72.72;102951.44;7389710;19;20079;-66
2022/01/30 10:36:20;;;;;;;13.85;1.52;;;;;;;7.90;72.68;102957.59;7391265;19;20046;-66
2022/01/30 10:39:02;;;;;;;13.80;1.98;;;;;;;7.93;72.39;102946.94;7393284;19;20688;-68
2022/01/30 10:41:41;;;;;;;10.25;1.20;;;;;;;7.96;72.94;102934.53;7394519;19;20011;-67
2022/01/30 10:44:09;;;;;;;13.30;1.83;;;;;;;7.99;72.93;102929.09;7395671;19;20443;-66
2022/01/30 10:46:41;;;;;;;16.65;1.80;;;;;;;8.04;71.97;102927.09;7391351;19;20483;-66
2022/01/30 10:49:14;;;;;;;15.23;2.13;;;;;;;8.04;71.38;102927.09;7397043;19;20018;-67
2022/01/30 10:51:55;;;;;;;17.75;4.53;;;;;;;8.08;70.42;102931.22;7396043;19;20376;-67
2022/01/30 10:54:26;;;;;;;12.57;2.40;;;;;;;8.14;70.32;102933.50;7396287;19;20421;-66
2022/01/30 10:57:03;;;;;;;15.25;1.90;;;;;;;8.18;70.66;102923.69;7393038;19;20015;-68
2022/01/30 10:59:30;;;;;;;14.70;1.38;;;;;;;8.22;70.52;102934.88;7398244;19;20014;-68
2022/01/30 11:02:12;;;;;;;14.65;1.42;;;;;;;8.29;70.05;102936.22;7393757;19;20014;-69
2022/01/30 11:04:39;;;;;;;9.98;1.10;;;;;;;8.34;70.11;102934.19;7393509;19;20034;-65
2022/01/30 11:07:07;;;;;;;10.85;1.40;;;;;;;8.39;69.87;102929.53;7391940;19;20078;-67
2022/01/30 11:12:10;;;;;;;14.45;1.15;;;;;;;8.50;68.94;102932.41;7394067;19;20091;-66
2022/01/30 11:17:09;;;;;;;8.38;0.85;;;;;;;8.58;68.77;102930.22;7396043;19;20035;-69
2022/01/30 11:19:39;;;;;;;11.70;1.20;;;;;;;8.65;68.41;102925.44;7391109;19;20026;-67
2022/01/30 11:22:10;;;;;;;12.88;1.10;;;;;;;8.67;68.41;102913.94;7391227;19;20074;-65
2022/01/30 11:24:42;;;;;;;9.23;1.38;;;;;;;8.72;68.07;102914.50;7396224;19;20018;-66
2022/01/30 11:27:09;;;;;;;22.20;5.50;;;;;;;8.76;68.09;102907.31;7391681;19;20010;-67
2022/01/30 11:29:37;;;;;;;13.63;2.85;;;;;;;8.81;67.39;102892.13;7391549;19;20414;-66
2022/01/30 11:32:09;;;;;;;17.33;3.30;;;;;;;8.85;66.68;102886.59;7391354;19;20011;-66
2022/01/30 11:34:42;;;;;;;10.82;1.95;;;;;;;8.90;65.58;102881.94;7390960;19;20015;-67
2022/01/30 11:37:12;;;;;;;7.65;1.08;;;;;;;8.96;65.57;102891.22;7393802;19;20017;-68
2022/01/30 11:39:48;;;;;;;21.52;1.48;;;;;;;8.98;65.01;102892.00;7395751;19;20448;-67
2022/01/30 11:42:19;;;;;;;11.88;1.33;;;;;;;8.96;65.08;102889.44;7391946;19;20014;-66
2022/01/30 11:44:49;;;;;;;13.38;1.02;;;;;;;8.97;64.91;102882.41;7391893;19;20003;-68
2022/01/30 11:48:00;;;;;;;11.95;1.33;;;;;;;9.02;64.20;102868.09;7393608;19;20028;-67
2022/01/30 11:50:35;;;;;;;8.80;1.77;;;;;;;9.06;63.76;102858.22;7392780;19;20393;-65
2022/01/30 11:53:04;;;;;;;11.82;1.27;;;;;;;9.06;63.63;102855.59;7393972;19;20014;-66
2022/01/30 11:55:50;;;;;;;10.63;1.23;;;;;;;9.10;64.83;102846.59;7390448;19;20011;-68
2022/01/30 11:58:30;;;;;;;11.80;1.48;;;;;;;9.09;65.93;102828.34;7394178;19;20074;-67
2022/01/30 12:00:59;;;;;;;16.42;1.30;;;;;;;9.12;66.17;102817.63;7392526;19;20015;-66
2022/01/30 12:03:30;;;;;;;9.43;1.10;;;;;;;9.16;64.06;102812.09;7391396;19;20029;-67
2022/01/30 12:06:20;;;;;;;10.90;1.08;;;;;;;9.24;64.53;102817.75;7390263;19;20010;-68
2022/01/30 12:08:51;;;;;;;12.38;1.20;;;;;;;9.36;66.08;102814.31;7394084;19;20018;-67
2022/01/30 12:11:35;;;;;;;9.98;1.65;;;;;;;9.37;63.35;102800.25;7389850;19;20014;-68
2022/01/30 12:14:05;;;;;;;10.48;1.00;;;;;;;9.38;63.29;102794.06;7395672;19;20760;-67
2022/01/30 12:16:55;;;;;;;6.70;1.15;;;;;;;9.41;63.12;102790.38;7390908;19;20079;-68
2022/01/30 12:19:33;;;;;;;7.97;0.70;;;;;;;9.40;62.25;102778.19;7393121;19;20018;-66
2022/01/30 12:22:23;;;;;;;7.95;1.25;;;;;;;9.42;63.22;102774.53;7393069;19;20021;-66
2022/01/30 12:25:22;;;;;;;7.47;1.05;;;;;;;9.42;62.53;102765.81;7394796;19;20035;-67
2022/01/30 12:27:51;;;;;;;9.35;1.25;;;;;;;9.44;63.11;102754.28;7393385;19;20014;-66
2022/01/30 12:30:32;;;;;;;10.95;1.35;;;;;;;9.48;63.49;102740.94;7390588;19;20027;-67
2022/01/30 12:33:00;;;;;;;7.53;0.85;;;;;;;9.53;63.57;102741.47;7387934;19;20048;-67
2022/01/30 12:35:28;;;;;;;12.93;1.27;;;;;;;9.55;64.72;102740.44;7390109;19;20014;-67
2022/01/30 12:37:56;;;;;;;11.52;1.13;;;;;;;9.50;63.18;102739.88;7387613;19;20010;-66
2022/01/30 12:40:24;;;;;;;12.70;1.23;;;;;;;9.54;62.93;102730.88;7391022;19;20550;-67
2022/01/30 12:42:51;;;;;;;9.35;1.00;;;;;;;9.59;63.44;102733.22;7391870;19;20035;-66
2022/01/30 12:45:19;;;;;;;8.90;1.25;;;;;;;9.63;63.30;102725.03;7392432;19;20095;-66
2022/01/30 12:47:52;;;;;;;10.45;0.98;;;;;;;9.66;63.35;102713.47;7389681;19;20345;-66